createdAt,value
2022-10-22T00:01:03.064Z,18.64
2022-10-22T00:03:33.338Z,18.60
2022-10-22T00:06:03.915Z,18.55
2022-10-22T00:08:34.328Z,18.52
2022-10-22T00:11:16.555Z,18.50
2022-10-22T00:13:48.518Z,18.55
2022-10-22T00:16:18.757Z,18.57
2022-10-22T00:18:49.091Z,18.63
2022-10-22T00:21:19.283Z,18.64
2022-10-22T00:23:50.102Z,18.64
2022-10-22T00:26:21.198Z,18.59
2022-10-22T00:28:51.578Z,18.50
2022-10-22T00:31:22.878Z,18.35
2022-10-22T00:33:52.799Z,18.30
2022-10-22T00:36:22.615Z,18.24
2022-10-22T00:38:52.414Z,18.15
2022-10-22T00:41:22.723Z,18.06
2022-10-22T00:44:06.564Z,18.01
2022-10-22T00:46:36.833Z,18.02
2022-10-22T00:49:06.682Z,18.06
2022-10-22T00:51:37.685Z,18.09
2022-10-22T00:54:11.012Z,18.10
2022-10-22T00:56:41.595Z,18.18
2022-10-22T00:59:14.701Z,18.22
2022-10-22T01:01:46.393Z,18.22
2022-10-22T01:04:17.078Z,18.16
2022-10-22T01:06:48.527Z,18.06
2022-10-22T01:09:27.732Z,18.01
2022-10-22T01:12:32.158Z,17.97
2022-10-22T01:15:22.865Z,17.91
2022-10-22T01:18:08.902Z,17.77
2022-10-22T01:20:57.510Z,17.66
2022-10-22T01:23:57.932Z,17.58
2022-10-22T01:27:06.414Z,17.70
2022-10-22T01:29:51.450Z,17.77
2022-10-22T01:32:27.342Z,17.77
2022-10-22T01:35:10.567Z,17.77
2022-10-22T01:37:46.324Z,17.73
2022-10-22T01:40:19.259Z,17.71
2022-10-22T01:43:07.932Z,17.66
2022-10-22T01:45:46.874Z,17.63
2022-10-22T01:48:29.165Z,17.53
2022-10-22T01:51:07.479Z,17.57
2022-10-22T01:54:02.933Z,17.58
2022-10-22T01:57:10.935Z,17.55
2022-10-22T02:00:16.883Z,17.54
2022-10-22T02:03:25.810Z,17.46
2022-10-22T02:06:01.150Z,17.34
2022-10-22T02:08:35.145Z,17.29
2022-10-22T02:11:06.729Z,17.26
2022-10-22T02:13:42.803Z,17.20
2022-10-22T02:16:17.407Z,17.13
2022-10-22T02:18:50.950Z,17.13
2022-10-22T02:21:21.791Z,17.13
2022-10-22T02:23:52.175Z,17.15
2022-10-22T02:26:26.298Z,17.18
2022-10-22T02:29:21.637Z,17.13
2022-10-22T02:31:54.026Z,17.08
2022-10-22T02:34:25.558Z,17.12
2022-10-22T02:36:55.587Z,17.13
2022-10-22T02:39:25.334Z,17.03
2022-10-22T02:41:56.728Z,16.99
2022-10-22T02:44:27.145Z,16.99
2022-10-22T02:46:57.690Z,17.03
2022-10-22T02:49:27.608Z,17.06
2022-10-22T02:51:57.628Z,17.13
2022-10-22T02:54:27.451Z,17.23
2022-10-22T02:56:57.247Z,17.27
2022-10-22T02:59:28.327Z,17.30
2022-10-22T03:01:58.259Z,17.34
2022-10-22T03:04:28.217Z,17.34
2022-10-22T03:06:58.377Z,17.40
2022-10-22T03:09:28.615Z,17.40
2022-10-22T03:11:58.426Z,17.34
2022-10-22T03:14:28.571Z,17.29
2022-10-22T03:16:58.824Z,17.26
2022-10-22T03:19:28.610Z,17.24
2022-10-22T03:22:08.734Z,17.19
2022-10-22T03:24:46.804Z,17.15
2022-10-22T03:27:20.869Z,17.06
2022-10-22T03:29:53.076Z,17.02
2022-10-22T03:32:23.091Z,16.98
2022-10-22T03:34:52.971Z,16.93
2022-10-22T03:37:23.109Z,16.93
2022-10-22T03:39:54.171Z,16.98
2022-10-22T03:42:24.977Z,16.99
2022-10-22T03:44:55.058Z,16.99
2022-10-22T03:47:25.802Z,17.05
2022-10-22T03:49:56.121Z,17.10
2022-10-22T03:52:26.514Z,17.13
2022-10-22T03:54:56.329Z,17.23
2022-10-22T03:57:26.647Z,17.19
2022-10-22T03:59:56.381Z,17.19
2022-10-22T04:02:26.667Z,17.20
2022-10-22T04:04:56.457Z,17.23
2022-10-22T04:07:26.627Z,17.23
2022-10-22T04:09:56.354Z,17.27
2022-10-22T04:12:26.203Z,17.26
2022-10-22T04:14:55.995Z,17.29
2022-10-22T04:17:26.009Z,17.30
2022-10-22T04:19:55.773Z,17.37
2022-10-22T04:22:25.543Z,17.34
2022-10-22T04:24:55.338Z,17.36
2022-10-22T04:27:25.162Z,17.31
2022-10-22T04:29:54.917Z,17.34
2022-10-22T04:32:24.762Z,17.31
2022-10-22T04:34:54.588Z,17.33
2022-10-22T04:37:24.426Z,17.41
2022-10-22T04:39:54.189Z,17.40
2022-10-22T04:42:23.953Z,17.40
2022-10-22T04:44:53.694Z,17.33
2022-10-22T04:47:23.539Z,17.30
2022-10-22T04:49:54.248Z,17.27
2022-10-22T04:52:24.776Z,17.27
2022-10-22T04:54:54.554Z,17.23
2022-10-22T04:57:24.334Z,17.19
2022-10-22T04:59:54.383Z,17.10
2022-10-22T05:02:24.621Z,17.09
2022-10-22T05:04:54.529Z,17.08
2022-10-22T05:07:24.947Z,17.03
2022-10-22T05:09:55.614Z,17.00
2022-10-22T05:12:25.921Z,16.90
2022-10-22T05:14:57.084Z,16.86
2022-10-22T05:17:27.532Z,16.82
2022-10-22T05:19:57.347Z,16.76
2022-10-22T05:22:27.567Z,16.72
2022-10-22T05:24:57.371Z,16.71
2022-10-22T05:27:27.367Z,16.62
2022-10-22T05:29:57.144Z,16.57
2022-10-22T05:32:26.882Z,16.51
2022-10-22T05:34:56.697Z,16.45
2022-10-22T05:37:26.471Z,16.44
2022-10-22T05:40:06.523Z,16.40
2022-10-22T05:42:46.213Z,16.31
2022-10-22T05:45:16.183Z,16.25
2022-10-22T05:47:46.383Z,16.21
2022-10-22T05:50:16.611Z,16.16
2022-10-22T05:52:46.384Z,16.11
2022-10-22T05:55:16.256Z,16.09
2022-10-22T05:57:46.082Z,16.07
2022-10-22T06:00:16.629Z,16.04
2022-10-22T06:02:50.665Z,15.96
2022-10-22T06:05:22.017Z,15.86
2022-10-22T06:07:51.972Z,15.87
2022-10-22T06:10:23.033Z,15.83
2022-10-22T06:12:53.363Z,15.79
2022-10-22T06:15:23.635Z,15.78
2022-10-22T06:17:53.410Z,15.72
2022-10-22T06:20:23.262Z,15.65
2022-10-22T06:22:53.052Z,15.65
2022-10-22T06:25:22.872Z,15.65
2022-10-22T06:27:53.186Z,15.66
2022-10-22T06:30:23.445Z,15.70
2022-10-22T06:32:53.251Z,15.78
2022-10-22T06:35:23.980Z,15.86
2022-10-22T06:37:54.061Z,15.89
2022-10-22T06:40:24.516Z,15.96
2022-10-22T06:42:54.818Z,15.99
2022-10-22T06:45:24.693Z,16.01
2022-10-22T06:47:54.916Z,16.07
2022-10-22T06:50:24.973Z,16.09
2022-10-22T06:52:55.090Z,16.14
2022-10-22T06:55:25.253Z,16.16
2022-10-22T06:57:56.686Z,16.20
2022-10-22T07:00:27.872Z,16.20
2022-10-22T07:02:59.903Z,16.14
2022-10-22T07:05:30.468Z,16.17
2022-10-22T07:08:00.471Z,16.20
2022-10-22T07:10:30.810Z,16.18
2022-10-22T07:13:01.451Z,16.21
2022-10-22T07:15:31.272Z,16.30
2022-10-22T07:18:01.397Z,16.30
2022-10-22T07:20:31.347Z,16.30
2022-10-22T07:23:01.130Z,16.34
2022-10-22T07:25:30.859Z,16.34
2022-10-22T07:28:00.635Z,16.32
2022-10-22T07:30:30.425Z,16.31
2022-10-22T07:33:00.609Z,16.30
2022-10-22T07:35:30.507Z,16.34
2022-10-22T07:38:00.260Z,16.37
2022-10-22T07:40:30.259Z,16.37
2022-10-22T07:43:00.130Z,16.37
2022-10-22T07:45:30.211Z,16.35
2022-10-22T07:48:01.810Z,16.38
2022-10-22T07:50:32.377Z,16.41
2022-10-22T07:53:02.410Z,16.41
2022-10-22T07:55:32.808Z,16.38
2022-10-22T07:58:02.899Z,16.34
2022-10-22T08:00:33.566Z,16.30
2022-10-22T08:03:03.636Z,16.32
2022-10-22T08:05:33.709Z,16.34
2022-10-22T08:08:03.709Z,16.35
2022-10-22T08:10:34.654Z,16.37
2022-10-22T08:13:05.270Z,16.38
2022-10-22T08:15:35.773Z,16.38
2022-10-22T08:18:06.289Z,16.35
2022-10-22T08:20:36.780Z,16.41
2022-10-22T08:23:07.423Z,16.42
2022-10-22T08:25:37.451Z,16.42
2022-10-22T08:28:08.542Z,16.41
2022-10-22T08:30:40.099Z,16.41
2022-10-22T08:33:10.608Z,16.47
2022-10-22T08:35:41.706Z,16.42
2022-10-22T08:38:11.877Z,16.38
2022-10-22T08:40:42.837Z,16.35
2022-10-22T08:43:58.044Z,16.37
2022-10-22T08:46:30.724Z,16.35
2022-10-22T08:49:04.381Z,16.34
2022-10-22T08:51:41.527Z,16.30
2022-10-22T08:54:32.739Z,16.28
2022-10-22T08:57:18.035Z,16.28
2022-10-22T08:59:58.873Z,16.31
2022-10-22T09:02:58.443Z,16.32
2022-10-22T09:05:43.689Z,16.30
2022-10-22T09:08:18.563Z,16.34
2022-10-22T09:11:03.845Z,16.40
2022-10-22T09:13:34.360Z,16.49
2022-10-22T09:16:18.633Z,16.51
2022-10-22T09:19:16.406Z,16.55
2022-10-22T09:22:03.788Z,16.62
2022-10-22T09:24:40.086Z,16.67
2022-10-22T09:27:18.139Z,16.78
2022-10-22T09:29:49.829Z,16.83
2022-10-22T09:32:20.623Z,16.89
2022-10-22T09:34:51.625Z,16.90
2022-10-22T09:37:29.089Z,16.93
2022-10-22T09:40:05.249Z,17.03
2022-10-22T09:42:36.092Z,17.12
2022-10-22T09:45:06.725Z,17.24
2022-10-22T09:48:01.195Z,17.34
2022-10-22T09:50:51.310Z,17.53
2022-10-22T09:54:00.172Z,17.70
2022-10-22T09:56:42.923Z,17.81
2022-10-22T09:59:20.941Z,17.94
2022-10-22T10:02:13.756Z,18.05
2022-10-22T10:04:56.081Z,18.13
2022-10-22T10:07:33.216Z,18.25
2022-10-22T10:10:04.858Z,18.38
2022-10-22T10:12:56.001Z,18.71
2022-10-22T10:16:21.191Z,19.67
2022-10-22T10:19:23.915Z,20.59
2022-10-22T10:21:54.349Z,21.20
2022-10-22T10:24:28.531Z,21.60
2022-10-22T10:27:11.870Z,21.91
2022-10-22T10:29:57.603Z,22.19
2022-10-22T10:32:53.708Z,21.93
2022-10-22T10:35:27.264Z,22.25
2022-10-22T10:38:24.626Z,22.39
2022-10-22T10:41:33.617Z,20.89
2022-10-22T10:44:24.758Z,21.07
2022-10-22T10:47:20.148Z,20.28
2022-10-22T10:49:55.240Z,19.75
2022-10-22T10:52:33.331Z,20.01
2022-10-22T10:55:15.624Z,20.84
2022-10-22T10:58:30.393Z,20.84
2022-10-22T11:01:22.604Z,20.55
2022-10-22T11:04:01.187Z,20.59
2022-10-22T11:06:33.097Z,20.69
2022-10-22T11:09:27.650Z,20.71
2022-10-22T11:12:04.604Z,20.69
2022-10-22T11:14:43.613Z,20.92
2022-10-22T11:17:19.484Z,20.95
2022-10-22T11:20:00.559Z,21.07
2022-10-22T11:23:17.734Z,21.22
2022-10-22T11:25:49.798Z,21.43
2022-10-22T11:28:44.817Z,21.56
2022-10-22T11:31:19.278Z,21.29
2022-10-22T11:34:21.474Z,21.12
2022-10-22T11:36:56.054Z,21.20
2022-10-22T11:40:00.840Z,21.40
2022-10-22T11:42:46.440Z,21.56
2022-10-22T11:45:16.491Z,21.87
2022-10-22T11:48:00.169Z,21.93
2022-10-22T11:51:11.761Z,22.24
2022-10-22T11:53:42.060Z,22.25
2022-10-22T11:56:11.899Z,22.52
2022-10-22T11:58:45.069Z,22.14
2022-10-22T12:01:16.894Z,22.00
2022-10-22T12:04:07.281Z,22.24
2022-10-22T12:06:55.683Z,22.05
2022-10-22T12:09:31.248Z,22.43
2022-10-22T12:12:16.566Z,22.57
2022-10-22T12:15:00.523Z,22.56
2022-10-22T12:17:31.116Z,23.14
2022-10-22T12:20:15.014Z,23.83
2022-10-22T12:22:46.544Z,23.76
2022-10-22T12:25:35.483Z,23.08
2022-10-22T12:28:06.635Z,22.36
2022-10-22T12:30:36.674Z,22.24
2022-10-22T12:33:09.707Z,22.33
2022-10-22T12:35:48.799Z,22.36
2022-10-22T12:38:21.948Z,22.73
2022-10-22T12:40:55.701Z,22.32
2022-10-22T12:43:31.642Z,22.46
2022-10-22T12:46:02.352Z,22.99
2022-10-22T12:48:39.912Z,23.37
2022-10-22T12:51:11.608Z,23.27
2022-10-22T12:53:47.507Z,22.90
2022-10-22T12:56:35.641Z,22.79
2022-10-22T12:59:21.364Z,23.17
2022-10-22T13:01:52.943Z,23.21
2022-10-22T13:04:30.017Z,23.44
2022-10-22T13:07:18.383Z,23.11
2022-10-22T13:10:00.201Z,23.21
2022-10-22T13:12:38.539Z,23.27
2022-10-22T13:15:30.295Z,24.92
2022-10-22T13:18:18.598Z,26.60
2022-10-22T13:21:02.838Z,25.33
2022-10-22T13:23:35.179Z,24.00
2022-10-22T13:26:05.167Z,23.47
2022-10-22T13:28:35.359Z,23.07
2022-10-22T13:31:19.537Z,23.57
2022-10-22T13:33:55.301Z,24.30
2022-10-22T13:36:26.534Z,23.96
2022-10-22T13:38:57.288Z,24.64
2022-10-22T13:41:30.100Z,26.51
2022-10-22T13:44:00.725Z,27.07
2022-10-22T13:46:30.818Z,26.37
2022-10-22T13:49:01.582Z,27.14
2022-10-22T13:51:36.119Z,27.54
2022-10-22T13:54:10.900Z,27.81
2022-10-22T13:56:41.114Z,26.76
2022-10-22T13:59:12.005Z,27.94
2022-10-22T14:01:43.373Z,29.14
2022-10-22T14:04:16.616Z,28.75
2022-10-22T14:06:46.904Z,29.07
2022-10-22T14:09:18.234Z,29.49
2022-10-22T14:11:50.457Z,29.84
2022-10-22T14:14:20.752Z,28.81
2022-10-22T14:16:50.607Z,29.82
2022-10-22T14:19:20.684Z,29.48
2022-10-22T14:21:50.543Z,27.74
2022-10-22T14:24:21.380Z,25.73
2022-10-22T14:26:51.532Z,25.83
2022-10-22T14:29:21.336Z,26.62
2022-10-22T14:31:51.117Z,28.63
2022-10-22T14:34:20.903Z,31.64
2022-10-22T14:36:50.705Z,30.64
2022-10-22T14:39:22.676Z,30.88
2022-10-22T14:41:52.951Z,30.23
2022-10-22T14:44:23.151Z,30.38
2022-10-22T14:46:55.504Z,32.63
2022-10-22T14:49:25.975Z,32.45
2022-10-22T14:51:56.197Z,32.75
2022-10-22T14:54:25.963Z,32.75
2022-10-22T14:56:55.820Z,33.82
2022-10-22T14:59:26.026Z,34.47
2022-10-22T15:01:55.961Z,33.88
2022-10-22T15:04:28.173Z,32.80
2022-10-22T15:06:58.248Z,32.19
2022-10-22T15:09:28.095Z,33.78
2022-10-22T15:11:57.945Z,32.75
2022-10-22T15:14:28.406Z,32.01
2022-10-22T15:16:58.731Z,31.95
2022-10-22T15:19:28.619Z,31.80
2022-10-22T15:21:58.446Z,32.33
2022-10-22T15:24:28.277Z,33.47
2022-10-22T15:26:58.071Z,33.55
2022-10-22T15:29:28.205Z,30.17
2022-10-22T15:31:59.559Z,28.27
2022-10-22T15:34:36.482Z,30.16
2022-10-22T15:37:10.397Z,29.76
2022-10-22T15:39:44.418Z,30.21
2022-10-22T15:42:15.732Z,28.63
2022-10-22T15:44:46.053Z,29.77
2022-10-22T15:47:15.989Z,30.17
2022-10-22T15:49:45.857Z,30.60
2022-10-22T15:52:17.017Z,30.99
2022-10-22T15:54:48.337Z,30.86
2022-10-22T15:57:18.461Z,31.33
2022-10-22T15:59:48.384Z,31.36
2022-10-22T16:02:18.291Z,31.60
2022-10-22T16:04:49.080Z,31.15
2022-10-22T16:07:21.163Z,31.85
2022-10-22T16:10:01.358Z,29.29
2022-10-22T16:12:31.470Z,27.47
2022-10-22T16:15:01.365Z,29.04
2022-10-22T16:17:31.257Z,29.25
2022-10-22T16:20:01.974Z,31.00
2022-10-22T16:22:31.987Z,31.33
2022-10-22T16:25:01.838Z,29.66
2022-10-22T16:27:31.786Z,29.45
2022-10-22T16:30:01.905Z,29.86
2022-10-22T16:32:31.738Z,30.64
2022-10-22T16:35:02.064Z,30.91
2022-10-22T16:37:32.508Z,31.97
2022-10-22T16:40:04.542Z,31.34
2022-10-22T16:42:38.073Z,29.10
2022-10-22T16:45:08.694Z,27.24
2022-10-22T16:47:38.852Z,28.33
2022-10-22T16:50:09.265Z,26.93
2022-10-22T16:52:39.505Z,26.29
2022-10-22T16:55:10.131Z,26.82
2022-10-22T16:57:40.821Z,26.21
2022-10-22T17:00:11.837Z,25.86
2022-10-22T17:02:41.805Z,26.01
2022-10-22T17:05:12.248Z,29.12
2022-10-22T17:07:42.374Z,27.98
2022-10-22T17:10:13.166Z,26.96
2022-10-22T17:12:43.673Z,29.01
2022-10-22T17:15:13.944Z,30.41
2022-10-22T17:17:44.589Z,27.77
2022-10-22T17:20:14.411Z,26.68
2022-10-22T17:22:44.262Z,29.38
2022-10-22T17:25:16.700Z,30.04
2022-10-22T17:27:48.192Z,30.55
2022-10-22T17:30:23.441Z,27.80
2022-10-22T17:32:56.985Z,27.11
2022-10-22T17:38:02.484Z,28.88
2022-10-22T17:40:32.645Z,30.02
2022-10-22T17:43:02.683Z,29.72
2022-10-22T17:45:32.468Z,29.36
2022-10-22T17:48:02.732Z,28.64
2022-10-22T17:50:33.061Z,28.93
2022-10-22T17:53:03.213Z,28.64
2022-10-22T17:55:35.801Z,28.97
2022-10-22T17:58:05.936Z,29.35
2022-10-22T18:00:38.135Z,29.12
2022-10-22T18:03:08.834Z,29.38
2022-10-22T18:05:39.561Z,29.25
2022-10-22T18:08:09.435Z,29.46
2022-10-22T18:10:41.969Z,29.03
2022-10-22T18:13:12.542Z,28.66
2022-10-22T18:15:43.214Z,28.81
2022-10-22T18:18:13.356Z,28.17
2022-10-22T18:20:43.403Z,26.62
2022-10-22T18:23:14.714Z,27.67
2022-10-22T18:25:44.892Z,28.23
2022-10-22T18:28:15.527Z,28.81
2022-10-22T18:30:46.216Z,28.86
2022-10-22T18:33:20.562Z,28.97
2022-10-22T18:35:50.689Z,28.25
2022-10-22T18:38:23.057Z,27.53
2022-10-22T18:40:53.328Z,27.40
2022-10-22T18:43:23.547Z,27.43
2022-10-22T18:45:53.463Z,27.59
2022-10-22T18:48:24.137Z,26.97
2022-10-22T18:51:03.184Z,27.33
2022-10-22T18:53:33.854Z,27.26
2022-10-22T18:56:07.235Z,27.46
2022-10-22T18:58:46.246Z,27.26
2022-10-22T19:01:23.385Z,27.11
2022-10-22T19:03:53.684Z,26.82
2022-10-22T19:06:33.306Z,27.29
2022-10-22T19:09:07.389Z,27.06
2022-10-22T19:11:38.122Z,26.76
2022-10-22T19:14:08.112Z,26.66
2022-10-22T19:16:39.911Z,26.38
2022-10-22T19:19:10.794Z,26.34
2022-10-22T19:21:40.628Z,26.47
2022-10-22T19:24:11.940Z,26.51
2022-10-22T19:26:43.235Z,26.44
2022-10-22T19:29:13.370Z,26.28
2022-10-22T19:31:44.106Z,26.42
2022-10-22T19:34:15.118Z,26.10
2022-10-22T19:36:45.248Z,25.29
2022-10-22T19:39:18.883Z,24.78
2022-10-22T19:41:49.638Z,24.56
2022-10-22T19:44:20.924Z,24.91
2022-10-22T19:46:51.618Z,25.36
2022-10-22T19:49:23.015Z,25.39
2022-10-22T19:51:53.406Z,25.11
2022-10-22T19:54:23.189Z,25.02
2022-10-22T19:56:53.175Z,25.15
2022-10-22T19:59:27.362Z,25.14
2022-10-22T20:02:00.500Z,25.23
2022-10-22T20:04:31.306Z,25.09
2022-10-22T20:07:01.219Z,25.09
2022-10-22T20:09:31.336Z,25.08
2022-10-22T20:12:01.543Z,25.11
2022-10-22T20:14:31.806Z,24.99
2022-10-22T20:17:01.695Z,24.85
2022-10-22T20:19:31.471Z,24.80
2022-10-22T20:22:01.404Z,24.74
2022-10-22T20:24:31.616Z,24.82
2022-10-22T20:27:01.419Z,24.80
2022-10-22T20:29:31.616Z,24.78
2022-10-22T20:32:02.396Z,24.67
2022-10-22T20:34:35.168Z,24.59
2022-10-22T20:37:05.629Z,24.53
2022-10-22T20:39:36.757Z,24.43
2022-10-22T20:42:06.595Z,24.44
2022-10-22T20:44:36.424Z,24.50
2022-10-22T20:47:06.621Z,24.33
2022-10-22T20:49:37.082Z,24.21
2022-10-22T20:52:07.907Z,24.13
2022-10-22T20:54:42.529Z,23.99
2022-10-22T20:57:14.803Z,23.78
2022-10-22T20:59:44.936Z,23.65
2022-10-22T21:02:14.766Z,23.59
2022-10-22T21:04:45.718Z,23.48
2022-10-22T21:07:17.526Z,23.44
2022-10-22T21:33:22.287Z,22.01
2022-10-22T21:35:54.774Z,21.98
2022-10-22T21:38:26.517Z,21.94
2022-10-22T21:40:57.159Z,21.88
2022-10-22T21:43:27.445Z,21.75
2022-10-22T21:46:25.015Z,21.65
2022-10-22T21:49:00.502Z,21.43
2022-10-22T21:51:33.140Z,21.32
2022-10-22T21:54:03.606Z,21.20
2022-10-22T21:56:35.983Z,21.15
2022-10-22T21:59:07.263Z,21.09
2022-10-22T22:01:37.932Z,20.96
2022-10-22T22:04:08.291Z,20.92
2022-10-22T22:06:38.134Z,20.89
2022-10-22T22:09:08.061Z,20.82
2022-10-22T22:11:38.012Z,20.68
2022-10-22T22:14:08.279Z,20.57
2022-10-22T22:16:38.476Z,20.47
2022-10-22T22:19:11.088Z,20.40
2022-10-22T22:21:42.607Z,20.28
2022-10-22T22:24:14.896Z,20.23
2022-10-22T22:26:45.196Z,20.20
2022-10-22T22:29:15.175Z,20.09
2022-10-22T22:31:47.116Z,19.97
2022-10-22T22:34:18.234Z,19.96
2022-10-22T22:36:52.592Z,19.85
2022-10-22T22:39:25.489Z,19.83
2022-10-22T22:41:55.582Z,19.73
2022-10-22T22:44:25.897Z,19.63
2022-10-22T22:46:56.144Z,19.66
2022-10-22T22:49:25.972Z,19.65
2022-10-22T22:51:55.793Z,19.61
2022-10-22T22:54:25.588Z,19.54
2022-10-22T22:56:55.446Z,19.46
2022-10-22T22:59:25.217Z,19.41
2022-10-22T23:01:55.599Z,19.36
2022-10-22T23:04:27.546Z,19.34
2022-10-22T23:06:58.352Z,19.32
2022-10-22T23:09:28.305Z,19.25
2022-10-22T23:11:58.088Z,19.24
2022-10-22T23:14:28.005Z,19.11
2022-10-22T23:16:58.220Z,19.07
2022-10-22T23:19:28.261Z,19.03
2022-10-22T23:22:17.807Z,19.01
2022-10-22T23:24:48.204Z,18.98
2022-10-22T23:27:18.471Z,18.96
2022-10-22T23:29:48.577Z,18.90
2022-10-22T23:32:18.361Z,18.84
2022-10-22T23:34:48.303Z,18.81
2022-10-22T23:37:18.218Z,18.73
2022-10-22T23:39:48.061Z,18.71
2022-10-22T23:42:18.180Z,18.71
2022-10-22T23:44:48.000Z,18.66
2022-10-22T23:47:17.800Z,18.61
2022-10-22T23:49:47.746Z,18.56
2022-10-22T23:52:17.526Z,18.55
2022-10-22T23:54:47.709Z,18.49
2022-10-22T23:57:17.537Z,18.45
2022-10-22T23:59:47.355Z,18.40
